Aviation Digital Data Service (ADDS)

Output produced by METARs form (1404 UTC 12 February 2016)
found at http://www.aviationweather.gov/adds/metars/
 
KESN 121350Z 00000KT 10SM SCT200 M05/M14 A3035